createdAt,value
2023-02-15T00:01:49.103Z,35.53
2023-02-15T00:04:18.174Z,36.27
2023-02-15T00:06:45.190Z,30.90
2023-02-15T00:09:12.975Z,35.33
2023-02-15T00:11:51.200Z,39.83
2023-02-15T00:14:23.458Z,45.30
2023-02-15T00:16:52.074Z,50.87
2023-02-15T00:19:21.515Z,39.70
2023-02-15T00:21:49.235Z,38.50
2023-02-15T00:24:17.796Z,37.73
2023-02-15T00:26:45.088Z,57.60
2023-02-15T00:29:13.060Z,42.17
2023-02-15T00:31:39.877Z,38.87
2023-02-15T00:34:11.491Z,33.33
2023-02-15T00:36:38.970Z,40.70
2023-02-15T00:39:05.986Z,41.70
2023-02-15T00:41:33.624Z,44.83
2023-02-15T00:44:00.712Z,37.70
2023-02-15T00:46:27.824Z,34.03
2023-02-15T00:48:54.482Z,31.60
2023-02-15T00:51:24.095Z,40.67
2023-02-15T00:53:50.829Z,37.97
2023-02-15T00:56:17.593Z,40.43
2023-02-15T00:58:44.502Z,37.40
2023-02-15T01:01:17.075Z,48.97
2023-02-15T01:03:47.333Z,36.50
2023-02-15T01:06:15.955Z,33.67
2023-02-15T01:08:44.584Z,54.37
2023-02-15T01:11:22.640Z,35.73
2023-02-15T01:13:58.211Z,34.73
2023-02-15T01:16:28.249Z,37.60
2023-02-15T01:18:57.877Z,39.97
2023-02-15T01:21:26.526Z,39.37
2023-02-15T01:23:53.402Z,33.67
2023-02-15T01:26:21.532Z,42.20
2023-02-15T01:28:48.428Z,34.23
2023-02-15T01:31:21.891Z,34.47
2023-02-15T01:33:49.481Z,36.87
2023-02-15T01:36:18.239Z,34.60
2023-02-15T01:38:45.013Z,36.37
2023-02-15T01:41:20.823Z,35.07
2023-02-15T01:43:51.001Z,37.57
2023-02-15T01:46:22.930Z,38.93
2023-02-15T01:48:53.705Z,33.47
2023-02-15T01:51:24.182Z,40.77
2023-02-15T01:54:01.307Z,41.03
2023-02-15T01:56:35.582Z,36.10
2023-02-15T01:59:08.061Z,34.83
2023-02-15T02:01:34.783Z,38.70
2023-02-15T02:04:30.716Z,40.93
2023-02-15T02:06:58.620Z,38.97
2023-02-15T02:09:25.770Z,35.67
2023-02-15T02:11:54.961Z,34.80
2023-02-15T02:14:23.148Z,33.03
2023-02-15T02:17:29.198Z,35.77
2023-02-15T02:20:29.392Z,32.03
2023-02-15T02:23:12.390Z,34.87
2023-02-15T02:25:47.646Z,35.57
2023-02-15T02:28:44.105Z,38.03
2023-02-15T02:31:32.425Z,34.77
2023-02-15T02:34:04.989Z,32.10
2023-02-15T02:36:50.305Z,34.00
2023-02-15T02:39:26.401Z,36.13
2023-02-15T02:42:17.700Z,44.07
2023-02-15T02:44:47.880Z,34.87
2023-02-15T02:47:23.632Z,32.07
2023-02-15T02:49:58.770Z,34.27
2023-02-15T02:52:46.810Z,32.83
2023-02-15T02:55:22.502Z,40.53
2023-02-15T02:58:03.646Z,32.00
2023-02-15T03:00:37.179Z,31.93
2023-02-15T03:03:15.893Z,32.87
2023-02-15T03:05:45.800Z,40.40
2023-02-15T03:08:22.496Z,32.40
2023-02-15T03:10:56.636Z,34.57
2023-02-15T03:13:24.451Z,42.30
2023-02-15T03:16:11.561Z,36.53
2023-02-15T03:18:58.085Z,38.17
2023-02-15T03:21:58.550Z,41.23
2023-02-15T03:24:38.252Z,41.27
2023-02-15T03:27:11.621Z,39.07
2023-02-15T03:29:39.802Z,42.33
2023-02-15T03:32:10.726Z,33.80
2023-02-15T03:34:37.661Z,36.33
2023-02-15T03:37:35.336Z,31.93
2023-02-15T03:40:40.738Z,34.23
2023-02-15T03:43:22.227Z,31.63
2023-02-15T03:45:57.824Z,30.20
2023-02-15T03:48:39.262Z,31.73
2023-02-15T03:51:37.061Z,34.30
2023-02-15T03:54:11.260Z,39.37
2023-02-15T03:56:40.982Z,41.53
2023-02-15T03:59:27.297Z,41.30
2023-02-15T04:02:05.667Z,33.50
2023-02-15T04:04:38.535Z,36.77
2023-02-15T04:07:07.978Z,36.50
2023-02-15T04:09:53.840Z,37.47
2023-02-15T04:12:20.813Z,38.47
2023-02-15T04:15:06.288Z,33.47
2023-02-15T04:17:32.993Z,41.07
2023-02-15T04:20:18.086Z,31.93
2023-02-15T04:23:03.428Z,30.97
2023-02-15T04:25:30.239Z,32.07
2023-02-15T04:27:56.951Z,34.33
2023-02-15T04:30:26.819Z,37.03
2023-02-15T04:32:54.918Z,31.33
2023-02-15T04:35:21.618Z,30.37
2023-02-15T04:37:48.516Z,26.67
2023-02-15T04:40:19.216Z,28.83
2023-02-15T04:42:49.234Z,33.50
2023-02-15T04:45:15.993Z,36.17
2023-02-15T04:47:42.756Z,33.90
2023-02-15T04:50:09.746Z,27.67
2023-02-15T04:52:37.072Z,31.67
2023-02-15T04:55:03.844Z,29.40
2023-02-15T04:57:30.557Z,32.37
2023-02-15T04:59:58.075Z,30.83
2023-02-15T05:02:24.760Z,28.00
2023-02-15T05:04:51.391Z,28.33
2023-02-15T05:07:18.553Z,25.27
2023-02-15T05:09:45.194Z,25.83
2023-02-15T05:12:11.835Z,26.93
2023-02-15T05:14:38.453Z,24.33
2023-02-15T05:17:06.228Z,24.30
2023-02-15T05:19:33.106Z,25.97
2023-02-15T05:22:00.194Z,25.20
2023-02-15T05:24:45.329Z,24.53
2023-02-15T05:27:31.267Z,25.50
2023-02-15T05:29:58.101Z,25.07
2023-02-15T05:32:25.019Z,23.63
2023-02-15T05:34:51.784Z,27.57
2023-02-15T05:37:18.471Z,25.97
2023-02-15T05:39:45.155Z,24.33
2023-02-15T05:42:11.905Z,23.33
2023-02-15T05:44:38.535Z,29.63
2023-02-15T05:47:07.991Z,22.93
2023-02-15T05:49:34.680Z,24.50
2023-02-15T05:52:01.372Z,28.20
2023-02-15T05:54:29.095Z,25.27
2023-02-15T05:56:55.806Z,25.23
2023-02-15T05:59:22.462Z,24.87
2023-02-15T06:01:49.130Z,26.47
2023-02-15T06:04:15.826Z,22.77
2023-02-15T06:06:42.642Z,23.90
2023-02-15T06:09:10.688Z,25.93
2023-02-15T06:11:37.352Z,24.03
2023-02-15T06:14:03.996Z,25.47
2023-02-15T06:16:31.097Z,21.80
2023-02-15T06:18:57.918Z,29.13
2023-02-15T06:21:24.543Z,31.83
2023-02-15T06:23:51.194Z,42.43
2023-02-15T06:26:18.106Z,27.97
2023-02-15T06:28:44.738Z,29.60
2023-02-15T06:31:11.703Z,25.40
2023-02-15T06:33:39.143Z,28.27
2023-02-15T06:36:06.011Z,28.70
2023-02-15T06:38:32.867Z,25.50
2023-02-15T06:40:59.619Z,25.90
2023-02-15T06:43:26.378Z,24.73
2023-02-15T06:45:53.036Z,27.60
2023-02-15T06:48:19.872Z,31.47
2023-02-15T06:50:46.520Z,28.20
2023-02-15T06:53:13.196Z,25.37
2023-02-15T06:55:39.831Z,27.43
2023-02-15T06:58:06.512Z,26.83
2023-02-15T07:00:33.215Z,25.63
2023-02-15T07:03:00.511Z,23.43
2023-02-15T07:05:31.656Z,24.57
2023-02-15T07:07:59.553Z,23.63
2023-02-15T07:10:26.900Z,26.30
2023-02-15T07:12:54.034Z,23.23
2023-02-15T07:15:23.655Z,32.50
2023-02-15T07:17:50.823Z,25.50
2023-02-15T07:20:20.299Z,22.73
2023-02-15T07:22:47.353Z,23.37
2023-02-15T07:25:14.583Z,25.00
2023-02-15T07:27:41.566Z,26.33
2023-02-15T07:30:10.605Z,26.63
2023-02-15T07:32:37.433Z,25.63
2023-02-15T07:35:04.314Z,23.37
2023-02-15T07:37:30.960Z,23.57
2023-02-15T07:39:57.587Z,22.30
2023-02-15T07:42:24.307Z,24.27
2023-02-15T07:44:51.703Z,21.80
2023-02-15T07:47:18.440Z,23.57
2023-02-15T07:49:45.631Z,23.57
2023-02-15T07:52:12.392Z,35.33
2023-02-15T07:54:39.388Z,22.33
2023-02-15T07:57:06.090Z,24.37
2023-02-15T07:59:32.754Z,29.83
2023-02-15T08:01:59.459Z,23.80
2023-02-15T08:04:26.219Z,24.10
2023-02-15T08:06:55.171Z,25.30
2023-02-15T08:09:22.718Z,29.53
2023-02-15T08:11:49.840Z,22.37
2023-02-15T08:14:19.189Z,25.07
2023-02-15T08:16:55.895Z,24.03
2023-02-15T08:19:28.457Z,31.33
2023-02-15T08:22:00.382Z,26.63
2023-02-15T08:24:29.778Z,24.27
2023-02-15T08:26:56.548Z,28.63
2023-02-15T08:29:25.525Z,25.53
2023-02-15T08:32:03.087Z,27.10
2023-02-15T08:34:32.299Z,22.57
2023-02-15T08:36:59.065Z,27.57
2023-02-15T08:39:25.718Z,24.37
2023-02-15T08:41:52.447Z,24.37
2023-02-15T08:44:20.968Z,27.40
2023-02-15T08:46:49.347Z,25.37
2023-02-15T08:49:21.277Z,27.23
2023-02-15T08:51:49.294Z,27.33
2023-02-15T08:54:19.096Z,28.83
2023-02-15T08:56:46.816Z,23.27
2023-02-15T08:59:17.509Z,24.37
2023-02-15T09:01:45.181Z,24.00
2023-02-15T09:04:13.244Z,21.07
2023-02-15T09:06:41.494Z,21.50
2023-02-15T09:09:08.818Z,19.13
2023-02-15T09:11:38.688Z,20.17
2023-02-15T09:14:27.396Z,20.17
2023-02-15T09:16:54.364Z,17.60
2023-02-15T09:19:22.691Z,21.57
2023-02-15T09:21:49.689Z,20.93
2023-02-15T09:24:18.056Z,21.57
2023-02-15T09:26:47.655Z,20.40
2023-02-15T09:29:15.576Z,22.13
2023-02-15T09:31:46.024Z,19.63
2023-02-15T09:34:14.280Z,21.30
2023-02-15T09:36:41.857Z,19.00
2023-02-15T09:39:30.243Z,23.00
2023-02-15T09:42:16.785Z,23.50
2023-02-15T09:45:21.168Z,18.97
2023-02-15T09:48:13.364Z,22.10
2023-02-15T09:51:21.801Z,19.53
2023-02-15T09:54:06.463Z,20.13
2023-02-15T09:56:46.055Z,18.73
2023-02-15T09:59:16.851Z,19.47
2023-02-15T10:01:49.300Z,18.33
2023-02-15T10:04:42.407Z,22.40
2023-02-15T10:07:09.028Z,17.67
2023-02-15T10:09:49.839Z,18.23
2023-02-15T10:12:44.724Z,18.73
2023-02-15T10:15:20.262Z,18.67
2023-02-15T10:17:49.777Z,16.03
2023-02-15T10:20:25.684Z,19.20
2023-02-15T10:23:00.838Z,19.37
2023-02-15T10:25:52.028Z,17.30
2023-02-15T10:28:21.570Z,16.57
2023-02-15T10:31:22.188Z,16.67
2023-02-15T10:33:56.337Z,18.33
2023-02-15T10:36:41.507Z,18.50
2023-02-15T10:39:55.286Z,18.10
2023-02-15T10:42:41.643Z,17.67
2023-02-15T10:45:24.986Z,17.13
2023-02-15T10:47:54.761Z,16.47
2023-02-15T10:50:39.603Z,16.83
2023-02-15T10:53:30.329Z,17.83
2023-02-15T10:56:12.565Z,15.23
2023-02-15T10:58:48.491Z,14.87
2023-02-15T11:01:33.054Z,16.33
2023-02-15T11:04:36.749Z,16.63
2023-02-15T11:07:26.638Z,17.60
2023-02-15T11:10:02.687Z,15.30
2023-02-15T11:12:31.973Z,15.13
2023-02-15T11:15:21.865Z,16.10
2023-02-15T11:18:19.239Z,15.27
2023-02-15T11:21:10.892Z,18.23
2023-02-15T11:23:43.711Z,17.17
2023-02-15T11:26:25.117Z,21.87
2023-02-15T11:29:26.641Z,17.73
2023-02-15T11:32:15.268Z,17.83
2023-02-15T11:35:01.483Z,19.80
2023-02-15T11:37:54.592Z,16.27
2023-02-15T11:40:50.439Z,16.87
2023-02-15T11:43:44.892Z,16.90
2023-02-15T11:46:13.675Z,16.57
2023-02-15T11:48:40.734Z,16.87
2023-02-15T11:51:13.681Z,16.70
2023-02-15T11:53:40.575Z,16.43
2023-02-15T11:56:17.664Z,18.90
2023-02-15T11:58:56.888Z,16.27
2023-02-15T12:01:41.819Z,19.50
2023-02-15T12:04:41.281Z,18.90
2023-02-15T12:07:37.374Z,16.23
2023-02-15T12:10:28.678Z,16.83
2023-02-15T12:13:17.362Z,17.90
2023-02-15T12:15:50.805Z,16.33
2023-02-15T12:18:36.102Z,15.73
2023-02-15T12:21:14.300Z,18.17
2023-02-15T12:23:48.052Z,17.67
2023-02-15T12:26:15.321Z,18.50
2023-02-15T12:28:50.036Z,18.20
2023-02-15T12:31:29.448Z,17.97
2023-02-15T12:33:59.167Z,18.37
2023-02-15T12:36:30.639Z,15.00
2023-02-15T12:39:14.261Z,17.70
2023-02-15T12:41:58.392Z,18.20
2023-02-15T12:44:31.344Z,15.77
2023-02-15T12:47:00.807Z,15.57
2023-02-15T12:49:29.075Z,17.07
2023-02-15T12:51:59.233Z,14.37
2023-02-15T12:54:39.612Z,15.03
2023-02-15T12:57:34.519Z,16.67
2023-02-15T13:00:06.645Z,14.43
2023-02-15T13:02:44.357Z,17.07
2023-02-15T13:05:14.494Z,14.10
2023-02-15T13:07:56.847Z,15.13
2023-02-15T13:10:56.965Z,15.03
2023-02-15T13:13:27.620Z,14.30
2023-02-15T13:16:15.890Z,14.93
2023-02-15T13:18:48.016Z,14.77
2023-02-15T13:21:25.688Z,14.17
2023-02-15T13:23:58.746Z,14.57
2023-02-15T13:26:29.868Z,17.83
2023-02-15T13:29:09.515Z,17.70
2023-02-15T13:31:36.903Z,14.80
2023-02-15T13:34:20.053Z,16.67
2023-02-15T13:37:04.919Z,18.30
2023-02-15T13:40:04.895Z,16.47
2023-02-15T13:42:40.372Z,15.17
2023-02-15T13:45:28.769Z,13.63
2023-02-15T13:48:17.799Z,14.77
2023-02-15T13:51:16.717Z,14.33
2023-02-15T13:54:27.097Z,14.53
2023-02-15T13:57:11.941Z,14.67
2023-02-15T14:00:02.765Z,16.83
2023-02-15T14:02:48.712Z,13.87
2023-02-15T14:05:34.592Z,14.63
2023-02-15T14:08:12.125Z,13.40
2023-02-15T14:11:05.003Z,13.60
2023-02-15T14:13:59.698Z,16.17
2023-02-15T14:17:05.762Z,19.97
2023-02-15T14:19:40.467Z,15.57
2023-02-15T14:22:15.702Z,14.03
2023-02-15T14:25:04.263Z,14.53
2023-02-15T14:27:45.609Z,15.50
2023-02-15T14:30:30.561Z,20.37
2023-02-15T14:33:03.762Z,15.03
2023-02-15T14:35:31.466Z,14.57
2023-02-15T14:38:16.641Z,18.00
2023-02-15T14:41:02.465Z,16.40
2023-02-15T14:43:51.160Z,15.97
2023-02-15T14:46:29.937Z,17.10
2023-02-15T14:49:08.135Z,15.40
2023-02-15T14:51:43.973Z,14.93
2023-02-15T14:54:12.003Z,17.00
2023-02-15T14:56:41.706Z,18.47
2023-02-15T14:59:24.705Z,16.17
2023-02-15T15:01:59.311Z,16.70
2023-02-15T15:04:42.756Z,17.80
2023-02-15T15:07:19.782Z,18.33
2023-02-15T15:09:58.407Z,15.33
2023-02-15T15:12:25.048Z,18.43
2023-02-15T15:14:55.526Z,18.77
2023-02-15T15:17:34.400Z,20.57
2023-02-15T15:20:08.171Z,17.93
2023-02-15T15:22:36.328Z,19.70
2023-02-15T15:25:46.080Z,18.73
2023-02-15T15:28:35.404Z,19.67
2023-02-15T15:31:40.030Z,22.20
2023-02-15T15:34:51.167Z,19.10
2023-02-15T15:37:34.872Z,16.53
2023-02-15T15:40:31.758Z,17.53
2023-02-15T15:43:34.752Z,20.07
2023-02-15T15:46:28.999Z,16.90
2023-02-15T15:48:56.069Z,17.67
2023-02-15T15:51:30.181Z,17.23
2023-02-15T15:53:57.727Z,17.00
2023-02-15T15:56:32.846Z,19.57
2023-02-15T15:59:03.835Z,21.20
2023-02-15T16:01:35.764Z,22.50
2023-02-15T16:04:02.582Z,26.90
2023-02-15T16:06:35.619Z,31.17
2023-02-15T16:09:12.694Z,26.43
2023-02-15T16:11:40.613Z,21.87
2023-02-15T16:14:30.633Z,22.73
2023-02-15T16:17:00.077Z,18.07
2023-02-15T16:19:34.344Z,15.37
2023-02-15T16:22:02.698Z,16.43
2023-02-15T16:24:52.471Z,14.30
2023-02-15T16:27:23.692Z,16.27
2023-02-15T16:29:50.436Z,14.03
2023-02-15T16:32:21.460Z,13.03
2023-02-15T16:35:03.147Z,15.70
2023-02-15T16:37:35.102Z,13.93
2023-02-15T16:40:01.955Z,11.33
2023-02-15T16:42:28.679Z,12.03
2023-02-15T16:44:58.542Z,12.57
2023-02-15T16:47:28.585Z,13.73
2023-02-15T16:50:00.109Z,11.67
2023-02-15T16:52:29.020Z,13.93
2023-02-15T16:54:58.915Z,14.73
2023-02-15T16:57:30.930Z,14.80
2023-02-15T17:00:05.772Z,12.20
2023-02-15T17:02:55.228Z,14.97
2023-02-15T17:05:22.063Z,13.63
2023-02-15T17:08:03.852Z,10.83
2023-02-15T17:10:39.783Z,15.50
2023-02-15T17:13:16.465Z,15.00
2023-02-15T17:16:01.930Z,13.60
2023-02-15T17:18:39.518Z,12.00
2023-02-15T17:21:13.989Z,14.27
2023-02-15T17:23:47.240Z,16.97
2023-02-15T17:26:19.631Z,13.87
2023-02-15T17:28:50.110Z,14.20
2023-02-15T17:31:19.738Z,14.10
2023-02-15T17:33:47.488Z,14.53
2023-02-15T17:36:23.325Z,14.37
2023-02-15T17:38:59.213Z,12.40
2023-02-15T17:41:30.363Z,13.30
2023-02-15T17:43:57.271Z,12.03
2023-02-15T17:46:24.992Z,13.23
2023-02-15T17:48:54.594Z,15.20
2023-02-15T17:51:22.468Z,12.27
2023-02-15T17:54:08.353Z,11.97
2023-02-15T17:56:36.126Z,13.73
2023-02-15T17:59:07.459Z,18.77
2023-02-15T18:02:04.247Z,17.97
2023-02-15T18:04:51.869Z,19.60
2023-02-15T18:07:37.890Z,14.43
2023-02-15T18:10:35.490Z,16.40
2023-02-15T18:13:02.237Z,18.70
2023-02-15T18:15:29.198Z,18.90
2023-02-15T18:17:56.618Z,16.70
2023-02-15T18:20:36.820Z,17.27
2023-02-15T18:23:03.706Z,17.13
2023-02-15T18:25:30.494Z,18.13
2023-02-15T18:27:57.209Z,18.10
2023-02-15T18:30:26.760Z,20.23
2023-02-15T18:32:56.960Z,24.17
2023-02-15T18:35:26.753Z,24.27
2023-02-15T18:37:54.164Z,23.43
2023-02-15T18:40:23.430Z,25.30
2023-02-15T18:42:50.246Z,20.80
2023-02-15T18:45:18.558Z,22.17
2023-02-15T18:47:48.637Z,21.57
2023-02-15T18:50:16.976Z,22.13
2023-02-15T18:52:46.396Z,22.37
2023-02-15T18:55:22.253Z,20.40
2023-02-15T18:57:52.202Z,18.30
2023-02-15T19:00:25.157Z,16.80
2023-02-15T19:02:52.047Z,17.17
2023-02-15T19:05:18.746Z,20.40
2023-02-15T19:07:48.282Z,17.27
2023-02-15T19:10:23.716Z,18.03
2023-02-15T19:12:51.452Z,16.10
2023-02-15T19:15:21.193Z,16.90
2023-02-15T19:17:48.032Z,18.03
2023-02-15T19:20:26.900Z,16.07
2023-02-15T19:22:56.382Z,16.83
2023-02-15T19:25:28.643Z,15.70
2023-02-15T19:27:56.080Z,13.23
2023-02-15T19:30:29.807Z,15.13
2023-02-15T19:32:58.061Z,14.50
2023-02-15T19:35:28.497Z,12.97
2023-02-15T19:37:58.066Z,24.70
2023-02-15T19:40:27.893Z,15.37
2023-02-15T19:42:55.159Z,15.73
2023-02-15T19:45:27.296Z,15.97
2023-02-15T19:47:55.080Z,13.57
2023-02-15T19:50:25.594Z,13.67
2023-02-15T19:52:52.374Z,13.57
2023-02-15T19:55:45.445Z,13.53
2023-02-15T19:58:13.838Z,13.83
2023-02-15T20:00:40.552Z,14.10
2023-02-15T20:03:07.220Z,12.87
2023-02-15T20:05:38.251Z,12.30
2023-02-15T20:08:18.339Z,12.20
2023-02-15T20:10:45.806Z,13.33
2023-02-15T20:13:17.851Z,11.33
2023-02-15T20:15:45.272Z,15.07
2023-02-15T20:18:12.573Z,11.97
2023-02-15T20:20:54.420Z,11.57
2023-02-15T20:23:30.435Z,10.73
2023-02-15T20:25:59.465Z,12.50
2023-02-15T20:28:29.142Z,11.87
2023-02-15T20:30:55.975Z,11.23
2023-02-15T20:33:23.577Z,11.93
2023-02-15T20:35:50.838Z,11.20
2023-02-15T20:38:27.958Z,11.80
2023-02-15T20:41:15.314Z,12.67
2023-02-15T20:43:42.012Z,13.20
2023-02-15T20:46:11.837Z,12.23
2023-02-15T20:48:38.563Z,12.00
2023-02-15T20:51:06.059Z,11.97
2023-02-15T20:53:33.058Z,12.33
2023-02-15T20:55:59.717Z,11.13
2023-02-15T20:58:30.260Z,12.33
2023-02-15T21:00:58.469Z,14.03
2023-02-15T21:03:30.580Z,13.23
2023-02-15T21:05:58.218Z,12.00
2023-02-15T21:08:25.358Z,11.87
2023-02-15T21:10:53.836Z,12.07
2023-02-15T21:13:31.341Z,13.03
2023-02-15T21:15:58.783Z,15.47
2023-02-15T21:18:28.267Z,14.43
2023-02-15T21:20:58.050Z,12.77
2023-02-15T21:23:29.246Z,13.47
2023-02-15T21:25:57.197Z,13.67
2023-02-15T21:28:26.554Z,13.70
2023-02-15T21:30:54.373Z,12.17
2023-02-15T21:33:21.337Z,11.27
2023-02-15T21:35:50.407Z,13.30
2023-02-15T21:38:20.736Z,12.57
2023-02-15T21:40:48.399Z,10.90
2023-02-15T21:44:01.007Z,11.00
2023-02-15T21:46:42.713Z,11.00
2023-02-15T21:49:10.718Z,9.27
2023-02-15T21:51:56.219Z,11.60
2023-02-15T21:54:22.881Z,11.40
2023-02-15T21:56:51.311Z,12.43
2023-02-15T21:59:18.483Z,12.20
2023-02-15T22:01:48.781Z,11.63
2023-02-15T22:04:23.143Z,14.57
2023-02-15T22:06:49.855Z,13.33
2023-02-15T22:09:22.125Z,12.93
2023-02-15T22:11:50.142Z,11.97
2023-02-15T22:14:45.666Z,11.43
2023-02-15T22:17:24.787Z,9.80
2023-02-15T22:19:52.598Z,11.80
2023-02-15T22:22:19.322Z,10.37
2023-02-15T22:24:46.109Z,11.13
2023-02-15T22:27:35.461Z,9.80
2023-02-15T22:30:03.268Z,12.17
2023-02-15T22:32:30.103Z,10.50
2023-02-15T22:34:56.825Z,10.73
2023-02-15T22:37:23.513Z,11.03
2023-02-15T22:39:50.579Z,10.90
2023-02-15T22:42:25.200Z,8.97
2023-02-15T22:44:54.617Z,10.77
2023-02-15T22:47:24.023Z,12.37
2023-02-15T22:49:51.317Z,11.87
2023-02-15T22:52:18.809Z,10.40
2023-02-15T22:54:45.894Z,9.50
2023-02-15T22:57:29.165Z,8.93
2023-02-15T22:59:56.584Z,10.63
2023-02-15T23:02:23.278Z,10.00
2023-02-15T23:04:49.996Z,10.50
2023-02-15T23:07:19.058Z,11.10
2023-02-15T23:09:46.261Z,10.57
2023-02-15T23:12:24.661Z,10.50
2023-02-15T23:14:52.261Z,11.77
2023-02-15T23:17:19.395Z,10.90
2023-02-15T23:19:46.429Z,9.63
2023-02-15T23:22:15.467Z,9.63
2023-02-15T23:24:42.738Z,8.33
2023-02-15T23:27:37.520Z,9.00
2023-02-15T23:30:15.130Z,10.20
2023-02-15T23:32:41.822Z,9.60
2023-02-15T23:35:17.118Z,9.53
2023-02-15T23:37:44.047Z,11.27
2023-02-15T23:40:36.964Z,9.17
2023-02-15T23:43:04.743Z,9.77
2023-02-15T23:45:34.852Z,9.07
2023-02-15T23:48:20.312Z,9.13
2023-02-15T23:50:46.960Z,11.93
2023-02-15T23:53:13.604Z,10.50
2023-02-15T23:55:43.379Z,13.10
2023-02-15T23:58:16.248Z,11.60
